sensor_id;sensor_type;location;lat;lon;timestamp;temperature;humidity
254;DHT22;590;48.772;8.846;2023-11-21T00:00:14;8.10;99.90
254;DHT22;590;48.772;8.846;2023-11-21T00:02:44;8.00;99.90
254;DHT22;590;48.772;8.846;2023-11-21T00:05:13;8.00;99.90
254;DHT22;590;48.772;8.846;2023-11-21T00:07:43;8.00;99.90
254;DHT22;590;48.772;8.846;2023-11-21T00:10:13;8.00;99.90
254;DHT22;590;48.772;8.846;2023-11-21T00:12:43;8.00;99.90
254;DHT22;590;48.772;8.846;2023-11-21T00:15:11;8.00;99.90
254;DHT22;590;48.772;8.846;2023-11-21T00:17:39;8.10;99.90
254;DHT22;590;48.772;8.846;2023-11-21T00:20:08;8.20;99.90
254;DHT22;590;48.772;8.846;2023-11-21T00:22:40;8.20;99.90
254;DHT22;590;48.772;8.846;2023-11-21T00:25:08;8.20;99.90
254;DHT22;590;48.772;8.846;2023-11-21T00:27:38;8.20;99.90
254;DHT22;590;48.772;8.846;2023-11-21T00:30:07;8.20;99.90
254;DHT22;590;48.772;8.846;2023-11-21T00:32:35;8.20;99.90
254;DHT22;590;48.772;8.846;2023-11-21T00:35:05;8.20;99.90
254;DHT22;590;48.772;8.846;2023-11-21T00:37:33;8.20;99.90
254;DHT22;590;48.772;8.846;2023-11-21T00:40:01;8.30;99.90
254;DHT22;590;48.772;8.846;2023-11-21T00:42:32;8.30;99.90
254;DHT22;590;48.772;8.846;2023-11-21T00:45:02;8.30;99.90
254;DHT22;590;48.772;8.846;2023-11-21T00:47:30;8.30;99.90
254;DHT22;590;48.772;8.846;2023-11-21T00:49:58;8.30;99.90
254;DHT22;590;48.772;8.846;2023-11-21T00:52:27;8.30;99.90
254;DHT22;590;48.772;8.846;2023-11-21T00:54:55;8.30;99.90
254;DHT22;590;48.772;8.846;2023-11-21T00:57:26;8.30;99.90
254;DHT22;590;48.772;8.846;2023-11-21T00:59:54;8.40;99.90
254;DHT22;590;48.772;8.846;2023-11-21T01:02:23;8.40;99.90
254;DHT22;590;48.772;8.846;2023-11-21T01:04:52;8.40;99.90
254;DHT22;590;48.772;8.846;2023-11-21T01:07:20;8.40;99.90
254;DHT22;590;48.772;8.846;2023-11-21T01:09:49;8.50;99.90
254;DHT22;590;48.772;8.846;2023-11-21T01:12:17;8.40;99.90
254;DHT22;590;48.772;8.846;2023-11-21T01:14:45;8.50;99.90
254;DHT22;590;48.772;8.846;2023-11-21T01:17:13;8.50;99.90
254;DHT22;590;48.772;8.846;2023-11-21T01:19:43;8.50;99.90
254;DHT22;590;48.772;8.846;2023-11-21T01:22:11;8.50;99.90
254;DHT22;590;48.772;8.846;2023-11-21T01:24:39;8.50;99.90
254;DHT22;590;48.772;8.846;2023-11-21T01:27:07;8.50;99.90
254;DHT22;590;48.772;8.846;2023-11-21T01:29:35;8.50;99.90
254;DHT22;590;48.772;8.846;2023-11-21T01:32:04;8.50;99.90
254;DHT22;590;48.772;8.846;2023-11-21T01:34:35;8.50;99.90
254;DHT22;590;48.772;8.846;2023-11-21T01:37:05;8.60;99.90
254;DHT22;590;48.772;8.846;2023-11-21T01:39:33;8.60;99.90
254;DHT22;590;48.772;8.846;2023-11-21T01:42:01;8.60;99.90
254;DHT22;590;48.772;8.846;2023-11-21T01:44:30;8.60;99.90
254;DHT22;590;48.772;8.846;2023-11-21T01:46:58;8.60;99.90
254;DHT22;590;48.772;8.846;2023-11-21T01:49:26;8.70;99.90
254;DHT22;590;48.772;8.846;2023-11-21T01:51:55;8.70;99.90
254;DHT22;590;48.772;8.846;2023-11-21T01:54:25;8.70;99.90
254;DHT22;590;48.772;8.846;2023-11-21T01:56:53;8.70;99.90
254;DHT22;590;48.772;8.846;2023-11-21T01:59:21;8.70;99.90
254;DHT22;590;48.772;8.846;2023-11-21T02:01:50;8.70;99.90
254;DHT22;590;48.772;8.846;2023-11-21T02:04:18;8.70;99.90
254;DHT22;590;48.772;8.846;2023-11-21T02:06:48;8.60;99.90
254;DHT22;590;48.772;8.846;2023-11-21T02:09:25;8.60;99.90
254;DHT22;590;48.772;8.846;2023-11-21T02:11:54;8.70;99.90
254;DHT22;590;48.772;8.846;2023-11-21T02:14:25;8.70;99.90
254;DHT22;590;48.772;8.846;2023-11-21T02:16:55;8.70;99.90
254;DHT22;590;48.772;8.846;2023-11-21T02:19:24;8.60;99.90
254;DHT22;590;48.772;8.846;2023-11-21T02:21:53;8.60;99.90
254;DHT22;590;48.772;8.846;2023-11-21T02:24:23;8.60;99.90
254;DHT22;590;48.772;8.846;2023-11-21T02:26:51;8.60;99.90
254;DHT22;590;48.772;8.846;2023-11-21T02:29:20;8.60;99.90
254;DHT22;590;48.772;8.846;2023-11-21T02:31:51;8.60;99.90
254;DHT22;590;48.772;8.846;2023-11-21T02:34:22;8.60;99.90
254;DHT22;590;48.772;8.846;2023-11-21T02:36:52;8.60;99.90
254;DHT22;590;48.772;8.846;2023-11-21T02:39:21;8.60;99.90
254;DHT22;590;48.772;8.846;2023-11-21T02:41:51;8.60;99.90
254;DHT22;590;48.772;8.846;2023-11-21T02:44:20;8.60;99.90
254;DHT22;590;48.772;8.846;2023-11-21T02:46:48;8.60;99.90
254;DHT22;590;48.772;8.846;2023-11-21T02:49:16;8.60;99.90
254;DHT22;590;48.772;8.846;2023-11-21T02:51:44;8.60;99.90
254;DHT22;590;48.772;8.846;2023-11-21T02:54:12;8.50;99.90
254;DHT22;590;48.772;8.846;2023-11-21T02:56:42;8.50;99.90
254;DHT22;590;48.772;8.846;2023-11-21T02:59:11;8.60;99.90
254;DHT22;590;48.772;8.846;2023-11-21T03:01:39;8.60;99.90
254;DHT22;590;48.772;8.846;2023-11-21T03:04:08;8.60;99.90
254;DHT22;590;48.772;8.846;2023-11-21T03:06:36;8.60;99.90
254;DHT22;590;48.772;8.846;2023-11-21T03:09:04;8.60;99.90
254;DHT22;590;48.772;8.846;2023-11-21T03:11:33;8.60;99.90
254;DHT22;590;48.772;8.846;2023-11-21T03:14:01;8.60;99.90
254;DHT22;590;48.772;8.846;2023-11-21T03:16:31;8.60;99.90
254;DHT22;590;48.772;8.846;2023-11-21T03:18:59;8.60;99.90
254;DHT22;590;48.772;8.846;2023-11-21T03:21:28;8.60;99.90
254;DHT22;590;48.772;8.846;2023-11-21T03:23:56;8.60;99.90
254;DHT22;590;48.772;8.846;2023-11-21T03:26:23;8.60;99.90
254;DHT22;590;48.772;8.846;2023-11-21T03:28:51;8.60;99.90
254;DHT22;590;48.772;8.846;2023-11-21T03:31:20;8.70;99.90
254;DHT22;590;48.772;8.846;2023-11-21T03:33:49;8.70;99.90
254;DHT22;590;48.772;8.846;2023-11-21T03:36:19;8.70;99.90
254;DHT22;590;48.772;8.846;2023-11-21T03:38:48;8.70;99.90
254;DHT22;590;48.772;8.846;2023-11-21T03:41:16;8.70;99.90
254;DHT22;590;48.772;8.846;2023-11-21T03:43:44;8.70;99.90
254;DHT22;590;48.772;8.846;2023-11-21T03:46:12;8.70;99.90
254;DHT22;590;48.772;8.846;2023-11-21T03:48:40;8.70;99.90
254;DHT22;590;48.772;8.846;2023-11-21T03:51:13;8.70;99.90
254;DHT22;590;48.772;8.846;2023-11-21T03:53:41;8.70;99.90
254;DHT22;590;48.772;8.846;2023-11-21T03:56:10;8.70;99.90
254;DHT22;590;48.772;8.846;2023-11-21T03:58:38;8.60;99.90
254;DHT22;590;48.772;8.846;2023-11-21T04:01:06;8.60;99.90
254;DHT22;590;48.772;8.846;2023-11-21T04:03:34;8.60;99.90
254;DHT22;590;48.772;8.846;2023-11-21T04:06:03;8.60;99.90
254;DHT22;590;48.772;8.846;2023-11-21T04:08:34;8.60;99.90
254;DHT22;590;48.772;8.846;2023-11-21T04:11:02;8.60;99.90
254;DHT22;590;48.772;8.846;2023-11-21T04:13:31;8.60;99.90
254;DHT22;590;48.772;8.846;2023-11-21T04:15:59;8.60;99.90
254;DHT22;590;48.772;8.846;2023-11-21T04:18:30;8.60;99.90
254;DHT22;590;48.772;8.846;2023-11-21T04:20:58;8.60;99.90
254;DHT22;590;48.772;8.846;2023-11-21T04:23:26;8.50;99.90
254;DHT22;590;48.772;8.846;2023-11-21T04:25:56;8.50;99.90
254;DHT22;590;48.772;8.846;2023-11-21T04:28:24;8.60;99.90
254;DHT22;590;48.772;8.846;2023-11-21T04:30:52;8.60;99.90
254;DHT22;590;48.772;8.846;2023-11-21T04:33:20;8.60;99.90
254;DHT22;590;48.772;8.846;2023-11-21T04:35:49;8.60;99.90
254;DHT22;590;48.772;8.846;2023-11-21T04:38:17;8.60;99.90
254;DHT22;590;48.772;8.846;2023-11-21T04:40:45;8.60;99.90
254;DHT22;590;48.772;8.846;2023-11-21T04:43:15;8.60;99.90
254;DHT22;590;48.772;8.846;2023-11-21T04:45:43;8.60;99.90
254;DHT22;590;48.772;8.846;2023-11-21T04:48:11;8.60;99.90
254;DHT22;590;48.772;8.846;2023-11-21T04:50:41;8.60;99.90
254;DHT22;590;48.772;8.846;2023-11-21T04:53:09;8.60;99.90
254;DHT22;590;48.772;8.846;2023-11-21T04:55:40;8.60;99.90
254;DHT22;590;48.772;8.846;2023-11-21T04:58:08;8.60;99.90
254;DHT22;590;48.772;8.846;2023-11-21T05:00:37;8.60;99.90
254;DHT22;590;48.772;8.846;2023-11-21T05:03:06;8.60;99.90
254;DHT22;590;48.772;8.846;2023-11-21T05:05:35;8.60;99.90
254;DHT22;590;48.772;8.846;2023-11-21T05:08:03;8.60;99.90
254;DHT22;590;48.772;8.846;2023-11-21T05:10:32;8.60;99.90
254;DHT22;590;48.772;8.846;2023-11-21T05:13:00;8.50;99.90
254;DHT22;590;48.772;8.846;2023-11-21T05:15:29;8.50;99.90
254;DHT22;590;48.772;8.846;2023-11-21T05:17:58;8.50;99.90
254;DHT22;590;48.772;8.846;2023-11-21T05:20:27;8.50;99.90
254;DHT22;590;48.772;8.846;2023-11-21T05:22:55;8.50;99.90
254;DHT22;590;48.772;8.846;2023-11-21T05:25:23;8.50;99.90
254;DHT22;590;48.772;8.846;2023-11-21T05:27:52;8.50;99.90
254;DHT22;590;48.772;8.846;2023-11-21T05:30:21;8.50;99.90
254;DHT22;590;48.772;8.846;2023-11-21T05:32:49;8.50;99.90
254;DHT22;590;48.772;8.846;2023-11-21T05:35:19;8.50;99.90
254;DHT22;590;48.772;8.846;2023-11-21T05:37:48;8.40;99.90
254;DHT22;590;48.772;8.846;2023-11-21T05:40:16;8.40;99.90
254;DHT22;590;48.772;8.846;2023-11-21T05:42:45;8.40;99.90
254;DHT22;590;48.772;8.846;2023-11-21T05:45:13;8.40;99.90
254;DHT22;590;48.772;8.846;2023-11-21T05:47:44;8.40;99.90
254;DHT22;590;48.772;8.846;2023-11-21T05:50:14;8.40;99.90
254;DHT22;590;48.772;8.846;2023-11-21T05:52:45;8.30;99.90
254;DHT22;590;48.772;8.846;2023-11-21T05:55:14;8.30;99.90
254;DHT22;590;48.772;8.846;2023-11-21T05:57:43;8.30;99.90
254;DHT22;590;48.772;8.846;2023-11-21T06:00:12;8.30;99.90
254;DHT22;590;48.772;8.846;2023-11-21T06:02:48;8.30;99.90
254;DHT22;590;48.772;8.846;2023-11-21T06:05:21;8.20;99.90
254;DHT22;590;48.772;8.846;2023-11-21T06:07:52;8.30;99.90
254;DHT22;590;48.772;8.846;2023-11-21T06:10:21;8.30;99.90
254;DHT22;590;48.772;8.846;2023-11-21T06:12:51;8.20;99.90
254;DHT22;590;48.772;8.846;2023-11-21T06:15:21;8.20;99.90
254;DHT22;590;48.772;8.846;2023-11-21T06:17:50;8.20;99.90
254;DHT22;590;48.772;8.846;2023-11-21T06:20:21;8.20;99.90
254;DHT22;590;48.772;8.846;2023-11-21T06:22:51;8.30;99.90
254;DHT22;590;48.772;8.846;2023-11-21T06:25:20;8.30;99.90
254;DHT22;590;48.772;8.846;2023-11-21T06:27:49;8.30;99.90
254;DHT22;590;48.772;8.846;2023-11-21T06:30:18;8.30;99.90
254;DHT22;590;48.772;8.846;2023-11-21T06:32:47;8.30;99.90
254;DHT22;590;48.772;8.846;2023-11-21T06:35:16;8.30;99.90
254;DHT22;590;48.772;8.846;2023-11-21T06:37:45;8.40;99.90
254;DHT22;590;48.772;8.846;2023-11-21T06:40:17;8.40;99.90
254;DHT22;590;48.772;8.846;2023-11-21T06:42:48;8.40;99.90
254;DHT22;590;48.772;8.846;2023-11-21T06:45:17;8.40;99.90
254;DHT22;590;48.772;8.846;2023-11-21T06:47:45;8.40;99.90
254;DHT22;590;48.772;8.846;2023-11-21T06:50:14;8.40;99.90
254;DHT22;590;48.772;8.846;2023-11-21T06:52:42;8.40;99.90
254;DHT22;590;48.772;8.846;2023-11-21T06:55:11;8.50;99.90
254;DHT22;590;48.772;8.846;2023-11-21T06:57:41;8.50;99.90
254;DHT22;590;48.772;8.846;2023-11-21T07:00:10;8.50;99.90
254;DHT22;590;48.772;8.846;2023-11-21T07:02:39;8.50;99.90
254;DHT22;590;48.772;8.846;2023-11-21T07:05:07;8.50;99.90
254;DHT22;590;48.772;8.846;2023-11-21T07:07:35;8.40;99.90
254;DHT22;590;48.772;8.846;2023-11-21T07:10:05;8.40;99.90
254;DHT22;590;48.772;8.846;2023-11-21T07:12:33;8.30;99.90
254;DHT22;590;48.772;8.846;2023-11-21T07:15:09;8.40;99.90
254;DHT22;590;48.772;8.846;2023-11-21T07:17:37;8.30;99.90
254;DHT22;590;48.772;8.846;2023-11-21T07:20:08;8.30;99.90
254;DHT22;590;48.772;8.846;2023-11-21T07:22:38;8.30;99.90
254;DHT22;590;48.772;8.846;2023-11-21T07:25:07;8.30;99.90
254;DHT22;590;48.772;8.846;2023-11-21T07:27:36;8.30;99.90
254;DHT22;590;48.772;8.846;2023-11-21T07:30:05;8.40;99.90
254;DHT22;590;48.772;8.846;2023-11-21T07:32:37;8.40;99.90
254;DHT22;590;48.772;8.846;2023-11-21T07:35:08;8.40;99.90
254;DHT22;590;48.772;8.846;2023-11-21T07:37:36;8.40;99.90
254;DHT22;590;48.772;8.846;2023-11-21T07:40:05;8.40;99.90
254;DHT22;590;48.772;8.846;2023-11-21T07:42:35;8.50;99.90
254;DHT22;590;48.772;8.846;2023-11-21T07:45:04;8.50;99.90
254;DHT22;590;48.772;8.846;2023-11-21T07:47:33;8.50;99.90
254;DHT22;590;48.772;8.846;2023-11-21T07:50:04;8.50;99.90
254;DHT22;590;48.772;8.846;2023-11-21T07:52:34;8.60;99.90
254;DHT22;590;48.772;8.846;2023-11-21T07:55:03;8.60;99.90
254;DHT22;590;48.772;8.846;2023-11-21T07:57:31;8.60;99.90
254;DHT22;590;48.772;8.846;2023-11-21T07:59:59;8.60;99.90
254;DHT22;590;48.772;8.846;2023-11-21T08:02:27;8.70;99.90
254;DHT22;590;48.772;8.846;2023-11-21T08:04:55;8.70;99.90
254;DHT22;590;48.772;8.846;2023-11-21T08:07:25;8.70;99.90
254;DHT22;590;48.772;8.846;2023-11-21T08:09:54;8.80;99.90
254;DHT22;590;48.772;8.846;2023-11-21T08:12:23;8.80;99.90
254;DHT22;590;48.772;8.846;2023-11-21T08:14:52;8.80;99.90
254;DHT22;590;48.772;8.846;2023-11-21T08:17:20;8.90;99.90
254;DHT22;590;48.772;8.846;2023-11-21T08:19:48;9.00;99.90
254;DHT22;590;48.772;8.846;2023-11-21T08:22:18;9.00;99.90
254;DHT22;590;48.772;8.846;2023-11-21T08:24:47;9.10;99.90
254;DHT22;590;48.772;8.846;2023-11-21T08:27:15;9.20;99.90
254;DHT22;590;48.772;8.846;2023-11-21T08:29:43;9.30;99.90
254;DHT22;590;48.772;8.846;2023-11-21T08:32:11;9.40;99.90
254;DHT22;590;48.772;8.846;2023-11-21T08:34:39;9.40;99.90
254;DHT22;590;48.772;8.846;2023-11-21T08:37:10;9.50;99.90
254;DHT22;590;48.772;8.846;2023-11-21T08:39:39;9.50;99.90
254;DHT22;590;48.772;8.846;2023-11-21T08:42:10;9.50;99.90
254;DHT22;590;48.772;8.846;2023-11-21T08:44:58;9.40;99.90
254;DHT22;590;48.772;8.846;2023-11-21T08:47:26;9.50;99.90
254;DHT22;590;48.772;8.846;2023-11-21T08:49:54;9.50;99.90
254;DHT22;590;48.772;8.846;2023-11-21T08:52:22;9.50;99.90
254;DHT22;590;48.772;8.846;2023-11-21T08:54:50;9.50;99.90
254;DHT22;590;48.772;8.846;2023-11-21T08:57:24;9.50;99.90
254;DHT22;590;48.772;8.846;2023-11-21T08:59:52;9.40;99.90
254;DHT22;590;48.772;8.846;2023-11-21T09:02:22;9.40;99.90
254;DHT22;590;48.772;8.846;2023-11-21T09:04:51;9.40;99.90
254;DHT22;590;48.772;8.846;2023-11-21T09:07:19;9.40;99.90
254;DHT22;590;48.772;8.846;2023-11-21T09:09:47;9.40;99.90
254;DHT22;590;48.772;8.846;2023-11-21T09:12:16;9.40;99.90
254;DHT22;590;48.772;8.846;2023-11-21T09:15:05;9.40;99.90
254;DHT22;590;48.772;8.846;2023-11-21T09:17:34;9.40;99.90
254;DHT22;590;48.772;8.846;2023-11-21T09:20:02;9.30;99.90
254;DHT22;590;48.772;8.846;2023-11-21T09:22:32;9.30;99.90
254;DHT22;590;48.772;8.846;2023-11-21T09:25:00;9.30;99.90
254;DHT22;590;48.772;8.846;2023-11-21T09:27:31;9.30;99.90
254;DHT22;590;48.772;8.846;2023-11-21T09:29:59;9.30;99.90
254;DHT22;590;48.772;8.846;2023-11-21T09:32:29;9.30;99.90
254;DHT22;590;48.772;8.846;2023-11-21T09:34:57;9.40;99.90
254;DHT22;590;48.772;8.846;2023-11-21T09:37:27;9.40;99.90
254;DHT22;590;48.772;8.846;2023-11-21T09:39:55;9.50;99.90
254;DHT22;590;48.772;8.846;2023-11-21T09:42:27;9.60;99.90
254;DHT22;590;48.772;8.846;2023-11-21T09:45:03;9.60;99.90
254;DHT22;590;48.772;8.846;2023-11-21T09:47:36;9.70;99.90
254;DHT22;590;48.772;8.846;2023-11-21T09:50:06;9.70;99.90
254;DHT22;590;48.772;8.846;2023-11-21T09:52:40;9.70;99.90
254;DHT22;590;48.772;8.846;2023-11-21T09:55:16;9.70;99.90
254;DHT22;590;48.772;8.846;2023-11-21T09:57:48;9.80;99.90
254;DHT22;590;48.772;8.846;2023-11-21T10:00:17;9.80;99.90
254;DHT22;590;48.772;8.846;2023-11-21T10:02:49;9.80;99.90
254;DHT22;590;48.772;8.846;2023-11-21T10:05:17;9.90;99.90
254;DHT22;590;48.772;8.846;2023-11-21T10:07:51;10.00;99.90
254;DHT22;590;48.772;8.846;2023-11-21T10:10:20;10.00;99.90
254;DHT22;590;48.772;8.846;2023-11-21T10:12:51;10.10;99.90
254;DHT22;590;48.772;8.846;2023-11-21T10:15:23;10.20;99.90
254;DHT22;590;48.772;8.846;2023-11-21T10:17:55;10.20;99.90
254;DHT22;590;48.772;8.846;2023-11-21T10:20:23;10.30;99.90
254;DHT22;590;48.772;8.846;2023-11-21T10:22:52;10.30;99.90
254;DHT22;590;48.772;8.846;2023-11-21T10:25:20;10.30;99.90
254;DHT22;590;48.772;8.846;2023-11-21T10:27:49;10.40;99.90
254;DHT22;590;48.772;8.846;2023-11-21T10:30:18;10.40;99.90
254;DHT22;590;48.772;8.846;2023-11-21T10:32:46;10.30;99.90
254;DHT22;590;48.772;8.846;2023-11-21T10:35:16;10.30;99.90
254;DHT22;590;48.772;8.846;2023-11-21T10:37:44;10.30;99.90
254;DHT22;590;48.772;8.846;2023-11-21T10:40:27;10.40;99.90
254;DHT22;590;48.772;8.846;2023-11-21T10:43:06;10.40;99.90
254;DHT22;590;48.772;8.846;2023-11-21T10:45:36;10.60;99.90
254;DHT22;590;48.772;8.846;2023-11-21T10:48:05;10.70;99.90
254;DHT22;590;48.772;8.846;2023-11-21T10:50:37;10.70;99.90
254;DHT22;590;48.772;8.846;2023-11-21T10:53:06;10.70;99.90
254;DHT22;590;48.772;8.846;2023-11-21T10:55:34;10.80;99.90
254;DHT22;590;48.772;8.846;2023-11-21T10:58:03;10.80;99.90
254;DHT22;590;48.772;8.846;2023-11-21T11:00:33;10.80;99.90
254;DHT22;590;48.772;8.846;2023-11-21T11:03:02;10.70;99.90
254;DHT22;590;48.772;8.846;2023-11-21T11:05:31;10.60;99.90
254;DHT22;590;48.772;8.846;2023-11-21T11:08:04;10.60;99.90
254;DHT22;590;48.772;8.846;2023-11-21T11:10:32;10.60;99.90
254;DHT22;590;48.772;8.846;2023-11-21T11:13:02;10.50;99.90
254;DHT22;590;48.772;8.846;2023-11-21T11:15:30;10.50;99.90
254;DHT22;590;48.772;8.846;2023-11-21T11:17:58;10.50;99.90
254;DHT22;590;48.772;8.846;2023-11-21T11:20:31;10.50;99.90
254;DHT22;590;48.772;8.846;2023-11-21T11:23:13;10.50;99.90
254;DHT22;590;48.772;8.846;2023-11-21T11:25:57;10.40;99.90
254;DHT22;590;48.772;8.846;2023-11-21T11:28:34;10.40;99.90
254;DHT22;590;48.772;8.846;2023-11-21T11:31:10;10.30;99.90
254;DHT22;590;48.772;8.846;2023-11-21T11:33:45;10.30;99.90
254;DHT22;590;48.772;8.846;2023-11-21T11:36:20;10.40;99.90
254;DHT22;590;48.772;8.846;2023-11-21T11:38:51;10.40;99.90
254;DHT22;590;48.772;8.846;2023-11-21T11:41:25;10.40;99.90
254;DHT22;590;48.772;8.846;2023-11-21T11:43:54;10.50;99.90
254;DHT22;590;48.772;8.846;2023-11-21T11:46:40;10.50;99.90
254;DHT22;590;48.772;8.846;2023-11-21T11:49:09;10.40;99.90
254;DHT22;590;48.772;8.846;2023-11-21T11:51:38;10.40;99.90
254;DHT22;590;48.772;8.846;2023-11-21T11:54:07;10.40;99.90
254;DHT22;590;48.772;8.846;2023-11-21T11:56:36;10.40;99.90
254;DHT22;590;48.772;8.846;2023-11-21T11:59:06;10.40;99.90
254;DHT22;590;48.772;8.846;2023-11-21T12:01:36;10.40;99.90
254;DHT22;590;48.772;8.846;2023-11-21T12:04:24;10.50;99.90
254;DHT22;590;48.772;8.846;2023-11-21T12:07:01;10.50;99.90
254;DHT22;590;48.772;8.846;2023-11-21T12:09:34;10.50;99.90
254;DHT22;590;48.772;8.846;2023-11-21T12:12:02;10.50;99.90
254;DHT22;590;48.772;8.846;2023-11-21T12:14:47;10.40;99.90
254;DHT22;590;48.772;8.846;2023-11-21T12:17:15;10.50;99.90
254;DHT22;590;48.772;8.846;2023-11-21T12:19:43;10.60;99.90
254;DHT22;590;48.772;8.846;2023-11-21T12:22:11;10.70;99.90
254;DHT22;590;48.772;8.846;2023-11-21T12:24:41;10.70;99.90
254;DHT22;590;48.772;8.846;2023-11-21T12:27:09;10.70;99.90
254;DHT22;590;48.772;8.846;2023-11-21T12:29:37;10.70;99.90
254;DHT22;590;48.772;8.846;2023-11-21T12:32:05;10.70;99.90
254;DHT22;590;48.772;8.846;2023-11-21T12:34:33;10.70;99.90
254;DHT22;590;48.772;8.846;2023-11-21T12:37:02;10.80;99.90
254;DHT22;590;48.772;8.846;2023-11-21T12:39:30;10.80;99.90
254;DHT22;590;48.772;8.846;2023-11-21T12:41:59;10.90;99.90
254;DHT22;590;48.772;8.846;2023-11-21T12:44:28;10.90;99.90
254;DHT22;590;48.772;8.846;2023-11-21T12:46:56;10.90;99.90
254;DHT22;590;48.772;8.846;2023-11-21T12:49:24;10.80;99.90
254;DHT22;590;48.772;8.846;2023-11-21T12:51:52;10.80;99.90
254;DHT22;590;48.772;8.846;2023-11-21T12:54:21;10.80;99.90
254;DHT22;590;48.772;8.846;2023-11-21T12:56:49;10.70;99.90
254;DHT22;590;48.772;8.846;2023-11-21T12:59:20;10.70;99.90
254;DHT22;590;48.772;8.846;2023-11-21T13:01:48;10.70;99.90
254;DHT22;590;48.772;8.846;2023-11-21T13:04:18;10.60;99.90
254;DHT22;590;48.772;8.846;2023-11-21T13:06:46;10.60;99.90
254;DHT22;590;48.772;8.846;2023-11-21T13:09:14;10.60;99.90
254;DHT22;590;48.772;8.846;2023-11-21T13:11:47;10.50;99.90
254;DHT22;590;48.772;8.846;2023-11-21T13:14:15;10.50;99.90
254;DHT22;590;48.772;8.846;2023-11-21T13:16:44;10.50;99.90
254;DHT22;590;48.772;8.846;2023-11-21T13:19:13;10.50;99.90
254;DHT22;590;48.772;8.846;2023-11-21T13:21:41;10.50;99.90
254;DHT22;590;48.772;8.846;2023-11-21T13:24:09;10.40;99.90
254;DHT22;590;48.772;8.846;2023-11-21T13:26:38;10.30;99.90
254;DHT22;590;48.772;8.846;2023-11-21T13:29:06;10.30;99.90
254;DHT22;590;48.772;8.846;2023-11-21T13:31:34;10.10;99.90
254;DHT22;590;48.772;8.846;2023-11-21T13:34:05;9.90;99.90
254;DHT22;590;48.772;8.846;2023-11-21T13:36:35;9.90;99.90
254;DHT22;590;48.772;8.846;2023-11-21T13:39:03;9.70;99.90
254;DHT22;590;48.772;8.846;2023-11-21T13:41:35;9.70;99.90
254;DHT22;590;48.772;8.846;2023-11-21T13:44:06;9.70;99.90
254;DHT22;590;48.772;8.846;2023-11-21T13:46:43;9.60;99.90
254;DHT22;590;48.772;8.846;2023-11-21T13:49:13;9.60;99.90
254;DHT22;590;48.772;8.846;2023-11-21T13:51:43;9.60;99.90
254;DHT22;590;48.772;8.846;2023-11-21T13:54:12;9.50;99.90
254;DHT22;590;48.772;8.846;2023-11-21T13:56:41;9.50;99.90
254;DHT22;590;48.772;8.846;2023-11-21T13:59:12;9.50;99.90
254;DHT22;590;48.772;8.846;2023-11-21T14:01:48;9.50;99.90
254;DHT22;590;48.772;8.846;2023-11-21T14:04:26;9.50;99.90
254;DHT22;590;48.772;8.846;2023-11-21T14:07:13;9.50;99.90
254;DHT22;590;48.772;8.846;2023-11-21T14:09:59;9.50;99.90
254;DHT22;590;48.772;8.846;2023-11-21T14:12:27;9.50;99.90
254;DHT22;590;48.772;8.846;2023-11-21T14:14:56;9.60;99.90
254;DHT22;590;48.772;8.846;2023-11-21T14:17:24;9.60;99.90
254;DHT22;590;48.772;8.846;2023-11-21T14:19:55;9.60;99.90
254;DHT22;590;48.772;8.846;2023-11-21T14:22:23;9.60;99.90
254;DHT22;590;48.772;8.846;2023-11-21T14:24:52;9.60;99.90
254;DHT22;590;48.772;8.846;2023-11-21T14:27:22;9.60;99.90
254;DHT22;590;48.772;8.846;2023-11-21T14:29:51;9.70;99.90
254;DHT22;590;48.772;8.846;2023-11-21T14:32:20;9.60;99.90
254;DHT22;590;48.772;8.846;2023-11-21T14:34:49;9.70;99.90
254;DHT22;590;48.772;8.846;2023-11-21T14:37:18;9.70;99.90
254;DHT22;590;48.772;8.846;2023-11-21T14:39:46;9.60;99.90
254;DHT22;590;48.772;8.846;2023-11-21T14:42:16;9.60;99.90
254;DHT22;590;48.772;8.846;2023-11-21T14:44:53;9.50;99.90
254;DHT22;590;48.772;8.846;2023-11-21T14:47:26;9.50;99.90
254;DHT22;590;48.772;8.846;2023-11-21T14:49:55;9.40;99.90
254;DHT22;590;48.772;8.846;2023-11-21T14:52:25;9.40;99.90
254;DHT22;590;48.772;8.846;2023-11-21T14:55:01;9.30;99.90
254;DHT22;590;48.772;8.846;2023-11-21T14:57:53;9.30;99.90
254;DHT22;590;48.772;8.846;2023-11-21T15:00:21;9.40;99.90
254;DHT22;590;48.772;8.846;2023-11-21T15:03:12;9.40;99.90
254;DHT22;590;48.772;8.846;2023-11-21T15:06:03;9.30;99.90
254;DHT22;590;48.772;8.846;2023-11-21T15:08:50;9.30;99.90
254;DHT22;590;48.772;8.846;2023-11-21T15:11:47;9.20;99.90
254;DHT22;590;48.772;8.846;2023-11-21T15:14:14;9.20;99.90
254;DHT22;590;48.772;8.846;2023-11-21T15:16:48;9.30;99.90
254;DHT22;590;48.772;8.846;2023-11-21T15:19:20;9.20;99.90
254;DHT22;590;48.772;8.846;2023-11-21T15:21:52;9.20;99.90
254;DHT22;590;48.772;8.846;2023-11-21T15:24:22;9.20;99.90
254;DHT22;590;48.772;8.846;2023-11-21T15:26:50;9.30;99.90
254;DHT22;590;48.772;8.846;2023-11-21T15:29:18;9.20;99.90
254;DHT22;590;48.772;8.846;2023-11-21T15:31:48;9.20;99.90
254;DHT22;590;48.772;8.846;2023-11-21T15:34:16;9.20;99.90
254;DHT22;590;48.772;8.846;2023-11-21T15:36:44;9.20;99.90
254;DHT22;590;48.772;8.846;2023-11-21T15:39:12;9.20;99.90
254;DHT22;590;48.772;8.846;2023-11-21T15:41:41;9.20;99.90
254;DHT22;590;48.772;8.846;2023-11-21T15:44:09;9.20;99.90
254;DHT22;590;48.772;8.846;2023-11-21T15:46:38;9.20;99.90
254;DHT22;590;48.772;8.846;2023-11-21T15:49:09;9.20;99.90
254;DHT22;590;48.772;8.846;2023-11-21T15:51:42;9.20;99.90
254;DHT22;590;48.772;8.846;2023-11-21T15:54:12;9.20;99.90
254;DHT22;590;48.772;8.846;2023-11-21T15:56:41;9.20;99.90
254;DHT22;590;48.772;8.846;2023-11-21T15:59:09;9.20;99.90
254;DHT22;590;48.772;8.846;2023-11-21T16:01:37;9.20;99.90
254;DHT22;590;48.772;8.846;2023-11-21T16:04:10;9.20;99.90
254;DHT22;590;48.772;8.846;2023-11-21T16:06:39;9.20;99.90
254;DHT22;590;48.772;8.846;2023-11-21T16:09:08;9.10;99.90
254;DHT22;590;48.772;8.846;2023-11-21T16:11:46;9.10;99.90
254;DHT22;590;48.772;8.846;2023-11-21T16:14:19;9.20;99.90
254;DHT22;590;48.772;8.846;2023-11-21T16:16:52;9.10;99.90
254;DHT22;590;48.772;8.846;2023-11-21T16:19:20;9.10;99.90
254;DHT22;590;48.772;8.846;2023-11-21T16:21:49;9.10;99.90
254;DHT22;590;48.772;8.846;2023-11-21T16:24:17;9.00;99.90
254;DHT22;590;48.772;8.846;2023-11-21T16:26:46;9.00;99.90
254;DHT22;590;48.772;8.846;2023-11-21T16:29:14;9.00;99.90
254;DHT22;590;48.772;8.846;2023-11-21T16:31:43;9.00;99.90
254;DHT22;590;48.772;8.846;2023-11-21T16:34:13;9.00;99.90
254;DHT22;590;48.772;8.846;2023-11-21T16:36:46;9.00;99.90
254;DHT22;590;48.772;8.846;2023-11-21T16:39:16;9.00;99.90
254;DHT22;590;48.772;8.846;2023-11-21T16:41:47;9.00;99.90
254;DHT22;590;48.772;8.846;2023-11-21T16:44:16;9.00;99.90
254;DHT22;590;48.772;8.846;2023-11-21T16:46:45;9.00;99.90
254;DHT22;590;48.772;8.846;2023-11-21T16:49:16;9.00;99.90
254;DHT22;590;48.772;8.846;2023-11-21T16:51:45;9.00;99.90
254;DHT22;590;48.772;8.846;2023-11-21T16:54:13;8.90;99.90
254;DHT22;590;48.772;8.846;2023-11-21T16:56:42;8.90;99.90
254;DHT22;590;48.772;8.846;2023-11-21T16:59:12;8.90;99.90
254;DHT22;590;48.772;8.846;2023-11-21T17:01:40;8.90;99.90
254;DHT22;590;48.772;8.846;2023-11-21T17:04:08;8.80;99.90
254;DHT22;590;48.772;8.846;2023-11-21T17:06:40;8.80;99.90